Time;durP1;ratioP1;P1;durP2;ratioP2;P2;SDS_P1;SDS_P2;PMS_P1;PMS_P2;Temp;Humidity;BMP_temperature;BMP_pressure;BME280_temperature;BME280_humidity;BME280_pressure;Samples;Min_cycle;Max_cycle;Signal;HPM_P1;HPM_P2
2024/01/13 00:01:50;;;;;;;18.75;9.40;;;;;;;-144.32;100.00;68061.97;10357154;28;20100;-78
2024/01/13 00:07:49;;;;;;;18.88;9.82;;;;;;;-144.32;100.00;68061.97;10359389;28;20054;-77
2024/01/13 00:13:48;;;;;;;21.73;10.25;;;;;;;-144.32;100.00;68061.97;10335121;28;20520;-80
2024/01/13 00:19:47;;;;;;;21.15;10.45;;;;;;;-144.32;100.00;68061.97;10357002;28;20065;-80
2024/01/13 00:25:46;;;;;;;22.52;11.07;;;;;;;-144.32;100.00;68061.97;10342513;28;20065;-78
2024/01/13 00:31:45;;;;;;;22.45;9.95;;;;;;;-144.32;100.00;68061.97;10350889;28;20054;-80
2024/01/13 00:37:44;;;;;;;23.48;11.32;;;;;;;-144.32;100.00;68061.97;10336295;28;20165;-78
2024/01/13 00:43:43;;;;;;;24.00;11.48;;;;;;;-144.32;100.00;68061.97;10353888;28;20049;-74
2024/01/13 00:49:42;;;;;;;24.40;11.52;;;;;;;-144.32;100.00;68061.97;10369127;28;20061;-79
2024/01/13 00:55:41;;;;;;;25.85;10.13;;;;;;;-144.32;100.00;68061.97;10370287;28;20065;-77
2024/01/13 01:01:40;;;;;;;26.00;11.05;;;;;;;-144.32;100.00;68061.97;10352385;28;20438;-77
2024/01/13 01:07:39;;;;;;;26.20;11.73;;;;;;;-144.32;100.00;68061.97;10333578;28;20768;-78
2024/01/13 01:13:38;;;;;;;25.48;10.63;;;;;;;-144.32;100.00;68061.97;10362055;28;20049;-76
2024/01/13 01:19:37;;;;;;;23.73;10.93;;;;;;;-144.32;100.00;68061.97;10358580;28;20056;-77
2024/01/13 01:25:36;;;;;;;24.77;11.00;;;;;;;-144.32;100.00;68061.97;10355207;28;20096;-76
2024/01/13 01:31:35;;;;;;;22.88;10.40;;;;;;;-144.32;100.00;68061.97;10362932;28;20092;-74
2024/01/13 01:37:34;;;;;;;22.15;9.90;;;;;;;-144.32;100.00;68061.97;10357834;28;20046;-74
2024/01/13 01:43:33;;;;;;;23.33;10.93;;;;;;;-144.32;100.00;68061.97;10362855;28;20778;-75
2024/01/13 01:49:39;;;;;;;23.80;10.65;;;;;;;-144.32;100.00;68061.97;10365378;28;20076;-75
2024/01/13 01:55:38;;;;;;;22.00;9.77;;;;;;;-144.32;100.00;68061.97;10353931;28;20060;-77
2024/01/13 02:01:38;;;;;;;23.42;11.45;;;;;;;-144.32;100.00;68061.97;10362655;28;20300;-78
2024/01/13 02:07:37;;;;;;;24.25;10.25;;;;;;;-144.32;100.00;68061.97;10357770;28;20121;-76
2024/01/13 02:13:36;;;;;;;20.88;10.10;;;;;;;-144.32;100.00;68061.97;10352379;28;20177;-75
2024/01/13 02:19:38;;;;;;;19.77;10.25;;;;;;;-144.32;100.00;68061.97;10357233;28;20054;-75
2024/01/13 02:25:37;;;;;;;20.95;9.48;;;;;;;-144.32;100.00;68061.97;10356589;28;20470;-75
2024/01/13 02:31:36;;;;;;;21.77;10.10;;;;;;;-144.32;100.00;68061.97;10352363;28;20054;-76
2024/01/13 02:37:35;;;;;;;19.35;9.77;;;;;;;-144.32;100.00;68061.97;10334664;28;20061;-75
2024/01/13 02:43:35;;;;;;;18.30;8.32;;;;;;;-144.32;100.00;68061.97;10359648;28;20100;-75
2024/01/13 02:49:42;;;;;;;19.55;9.60;;;;;;;-144.32;100.00;68061.97;10351269;28;20054;-75
2024/01/13 02:55:41;;;;;;;20.88;9.48;;;;;;;-144.32;100.00;68061.97;10356314;28;20539;-79
2024/01/13 03:01:40;;;;;;;23.40;9.95;;;;;;;-144.32;100.00;68061.97;10340874;28;20540;-78
2024/01/13 03:07:39;;;;;;;18.48;8.75;;;;;;;-144.32;100.00;68061.97;10352905;28;20057;-79
2024/01/13 03:13:38;;;;;;;22.23;10.05;;;;;;;-144.32;100.00;68061.97;10358445;28;20053;-79
2024/01/13 03:19:37;;;;;;;22.77;9.57;;;;;;;-144.32;100.00;68061.97;10358057;28;20057;-76
2024/01/13 03:25:36;;;;;;;21.35;9.68;;;;;;;-144.32;100.00;68061.97;10357285;28;20052;-73
2024/01/13 03:31:35;;;;;;;19.45;8.98;;;;;;;-144.32;100.00;68061.97;10355106;28;20074;-74
2024/01/13 03:37:34;;;;;;;21.83;9.48;;;;;;;-144.32;100.00;68061.97;10353951;28;20836;-75
2024/01/13 03:43:34;;;;;;;21.83;10.65;;;;;;;-144.32;100.00;68061.97;10332574;28;20053;-76
2024/01/13 03:49:32;;;;;;;19.00;8.38;;;;;;;-144.32;100.00;68061.97;10354484;28;20054;-77
2024/01/13 03:55:31;;;;;;;20.65;9.45;;;;;;;-144.32;100.00;68061.97;10353228;28;20050;-75
2024/01/13 04:01:30;;;;;;;18.48;8.02;;;;;;;-144.32;100.00;68061.97;10349966;28;20057;-78
2024/01/13 04:07:30;;;;;;;20.05;9.52;;;;;;;-144.32;100.00;68061.97;10361487;28;20045;-79
2024/01/13 04:13:29;;;;;;;19.17;9.65;;;;;;;-144.32;100.00;68061.97;10355962;28;20684;-76
2024/01/13 04:19:28;;;;;;;18.08;8.40;;;;;;;-144.32;100.00;68061.97;10333214;28;20120;-75
2024/01/13 04:25:27;;;;;;;18.60;8.50;;;;;;;-144.32;100.00;68061.97;10358289;28;20062;-76
2024/01/13 04:31:26;;;;;;;16.00;7.53;;;;;;;-144.32;100.00;68061.97;10358566;28;20046;-76
2024/01/13 04:37:25;;;;;;;17.40;8.38;;;;;;;-144.32;100.00;68061.97;10345802;28;20088;-78
2024/01/13 04:43:24;;;;;;;17.83;8.65;;;;;;;-144.32;100.00;68061.97;10357392;28;20050;-78
2024/01/13 04:49:23;;;;;;;19.30;9.15;;;;;;;-144.32;100.00;68061.97;10361686;28;20331;-76
2024/01/13 04:55:22;;;;;;;20.33;9.57;;;;;;;-144.32;100.00;68061.97;10369076;28;20054;-76
2024/01/13 05:01:21;;;;;;;17.77;8.75;;;;;;;-144.32;100.00;68061.97;10358103;28;20049;-77
2024/01/13 05:07:20;;;;;;;16.92;8.80;;;;;;;-144.32;100.00;68061.97;10361726;28;20582;-77
2024/01/13 05:13:20;;;;;;;21.55;10.43;;;;;;;-144.32;100.00;68061.97;10366445;28;20050;-76
2024/01/13 05:19:20;;;;;;;17.50;9.13;;;;;;;-144.32;100.00;68061.97;10347246;28;20053;-77
2024/01/13 05:25:20;;;;;;;17.52;8.75;;;;;;;-144.32;100.00;68061.97;10351895;28;20099;-77
2024/01/13 05:31:19;;;;;;;20.90;10.38;;;;;;;-144.32;100.00;68061.97;10366995;28;20049;-76
2024/01/13 05:37:19;;;;;;;21.42;10.15;;;;;;;-144.32;100.00;68061.97;10357930;28;20041;-76
2024/01/13 05:43:18;;;;;;;18.73;9.27;;;;;;;-144.32;100.00;68061.97;10353282;28;20810;-74
2024/01/13 05:49:17;;;;;;;20.20;9.52;;;;;;;-144.32;100.00;68061.97;10357452;28;20057;-76
2024/01/13 05:55:16;;;;;;;18.88;9.63;;;;;;;-144.32;100.00;68061.97;10341577;28;20820;-76
2024/01/13 06:01:15;;;;;;;19.55;9.32;;;;;;;-144.32;100.00;68061.97;10342490;28;20058;-78
2024/01/13 06:07:15;;;;;;;21.08;9.65;;;;;;;-144.32;100.00;68061.97;10362090;28;20061;-77
2024/01/13 06:13:14;;;;;;;18.42;8.73;;;;;;;-144.32;100.00;68061.97;10358398;28;20507;-78
2024/01/13 06:19:14;;;;;;;20.77;9.77;;;;;;;-144.32;100.00;68061.97;10356613;28;20057;-77
2024/01/13 06:25:13;;;;;;;22.08;10.02;;;;;;;-144.32;100.00;68061.97;10362647;28;20140;-77
2024/01/13 06:31:13;;;;;;;17.75;9.45;;;;;;;-144.32;100.00;68061.97;10355958;28;20057;-77
2024/01/13 06:37:12;;;;;;;21.52;10.02;;;;;;;-144.32;100.00;68061.97;10352744;28;20061;-75
2024/01/13 06:43:11;;;;;;;18.75;9.07;;;;;;;-144.32;100.00;68061.97;10363840;28;20046;-81
2024/01/13 06:49:10;;;;;;;18.58;10.73;;;;;;;-144.32;100.00;68061.97;10349460;28;20049;-78
2024/01/13 06:55:09;;;;;;;20.00;9.15;;;;;;;-144.32;100.00;68061.97;10357439;28;20046;-76
2024/01/13 07:01:12;;;;;;;20.15;9.57;;;;;;;-144.32;100.00;68061.97;10359015;28;20056;-75
2024/01/13 07:07:11;;;;;;;19.33;8.95;;;;;;;-144.32;100.00;68061.97;10355565;28;20064;-77
2024/01/13 07:13:10;;;;;;;19.50;9.55;;;;;;;-144.32;100.00;68061.97;10354686;28;20049;-78
2024/01/13 07:19:09;;;;;;;23.13;9.68;;;;;;;-144.32;100.00;68061.97;10357171;28;20054;-78
2024/01/13 07:25:09;;;;;;;22.25;9.10;;;;;;;-144.32;100.00;68061.97;10357592;28;20461;-75
2024/01/13 07:31:08;;;;;;;21.35;10.55;;;;;;;-144.32;100.00;68061.97;10360268;28;20056;-75
2024/01/13 07:37:07;;;;;;;17.17;8.52;;;;;;;-144.32;100.00;68061.97;10335053;28;20159;-77
2024/01/13 07:43:06;;;;;;;19.70;9.73;;;;;;;-144.32;100.00;68061.97;10360076;28;20065;-76
2024/01/13 07:49:05;;;;;;;16.50;8.75;;;;;;;-144.32;100.00;68061.97;10366103;28;20056;-79
2024/01/13 07:55:04;;;;;;;18.17;8.88;;;;;;;-144.32;100.00;68061.97;10352284;28;20442;-78
2024/01/13 08:01:04;;;;;;;15.23;7.88;;;;;;;-144.32;100.00;68061.97;10328374;28;20133;-80
2024/01/13 08:07:03;;;;;;;15.60;7.45;;;;;;;-144.32;100.00;68061.97;10337577;28;20085;-77
2024/01/13 08:13:02;;;;;;;17.17;8.73;;;;;;;-144.32;100.00;68061.97;10357378;28;20142;-78
2024/01/13 08:19:02;;;;;;;18.63;8.77;;;;;;;-144.32;100.00;68061.97;10355209;28;20345;-76
2024/01/13 08:25:01;;;;;;;18.75;8.55;;;;;;;-144.32;100.00;68061.97;10356000;28;20057;-80
2024/01/13 08:31:00;;;;;;;21.17;8.60;;;;;;;-144.32;100.00;68061.97;10342678;28;20041;-82
2024/01/13 08:36:59;;;;;;;16.05;8.45;;;;;;;-144.32;100.00;68061.97;10371708;28;20049;-78
2024/01/13 08:43:00;;;;;;;15.30;8.13;;;;;;;-144.32;100.00;68061.97;10369998;28;20169;-81
2024/01/13 08:48:59;;;;;;;16.55;7.43;;;;;;;-144.32;100.00;68061.97;10357029;28;20066;-75
2024/01/13 08:54:58;;;;;;;11.52;6.75;;;;;;;-144.32;100.00;68061.97;10357832;28;20654;-76
2024/01/13 09:00:57;;;;;;;14.68;6.97;;;;;;;-144.32;100.00;68061.97;10366338;28;20270;-73
2024/01/13 09:06:57;;;;;;;12.30;6.40;;;;;;;-144.32;100.00;68061.97;10360310;28;20092;-79
2024/01/13 09:12:56;;;;;;;12.48;6.68;;;;;;;-144.32;100.00;68061.97;10361215;28;20078;-79
2024/01/13 09:18:56;;;;;;;10.63;5.57;;;;;;;-144.32;100.00;68061.97;10355284;28;20211;-80
2024/01/13 09:24:55;;;;;;;12.10;7.03;;;;;;;-144.32;100.00;68061.97;10353698;28;20184;-78
2024/01/13 09:30:55;;;;;;;11.32;5.97;;;;;;;-144.32;100.00;68061.97;10363832;28;20065;-77
2024/01/13 09:36:55;;;;;;;11.25;5.88;;;;;;;-144.32;100.00;68061.97;10364856;28;20064;-78
2024/01/13 09:43:09;;;;;;;13.98;5.90;;;;;;;-144.32;100.00;68061.97;10355870;28;20104;-81
2024/01/13 09:49:12;;;;;;;8.63;5.72;;;;;;;-144.32;100.00;68061.97;10340060;28;20102;-79
2024/01/13 09:55:18;;;;;;;11.68;6.07;;;;;;;-144.32;100.00;68061.97;10363830;28;20065;-81
2024/01/13 10:01:17;;;;;;;11.67;6.47;;;;;;;-144.32;100.00;68061.97;10345069;28;20050;-78
2024/01/13 10:07:16;;;;;;;12.23;7.05;;;;;;;-144.32;100.00;68061.97;10326247;28;20527;-77
2024/01/13 10:13:15;;;;;;;9.82;6.43;;;;;;;-144.32;100.00;68061.97;10357341;28;20052;-80
2024/01/13 10:19:14;;;;;;;14.45;8.18;;;;;;;-144.32;100.00;68061.97;10353410;28;20053;-78
2024/01/13 10:25:17;;;;;;;11.07;7.50;;;;;;;-144.32;100.00;68061.97;10355298;28;20104;-79
2024/01/13 10:31:16;;;;;;;10.18;5.97;;;;;;;-144.32;100.00;68061.97;10360605;28;20057;-79
2024/01/13 10:37:20;;;;;;;9.10;6.38;;;;;;;-144.32;100.00;68061.97;10358789;28;20112;-78
2024/01/13 10:43:23;;;;;;;11.32;6.93;;;;;;;-144.32;100.00;68061.97;10347464;28;20056;-80
2024/01/13 10:49:33;;;;;;;11.25;7.30;;;;;;;-144.32;100.00;68061.97;10360418;28;20053;-77
2024/01/13 10:55:32;;;;;;;10.38;6.75;;;;;;;-144.32;100.00;68061.97;10351595;28;20064;-79
2024/01/13 11:01:32;;;;;;;11.52;6.88;;;;;;;-144.32;100.00;68061.97;10359466;28;20107;-77
2024/01/13 11:07:31;;;;;;;14.52;8.23;;;;;;;-144.32;100.00;68061.97;10357400;28;20116;-80
2024/01/13 11:13:50;;;;;;;11.43;7.50;;;;;;;-144.32;100.00;68061.97;10344825;28;20923;-79
2024/01/13 11:19:50;;;;;;;13.40;8.00;;;;;;;-144.32;100.00;68061.97;10357647;28;20145;-78
2024/01/13 11:25:49;;;;;;;11.13;6.82;;;;;;;-144.32;100.00;68061.97;10358535;28;21182;-77
2024/01/13 11:31:54;;;;;;;11.93;6.35;;;;;;;-144.32;100.00;68061.97;10359153;28;20486;-79
2024/01/13 11:37:59;;;;;;;11.97;7.03;;;;;;;-144.32;100.00;68061.97;10362517;28;20077;-78
2024/01/13 11:43:59;;;;;;;10.63;6.65;;;;;;;-144.32;100.00;68061.97;10337811;28;20054;-79
2024/01/13 11:49:59;;;;;;;12.63;7.10;;;;;;;-144.32;100.00;68061.97;10361215;28;20061;-77
2024/01/13 11:55:59;;;;;;;12.52;8.10;;;;;;;-144.32;100.00;68061.97;10365321;28;20054;-76
2024/01/13 12:01:58;;;;;;;15.13;8.93;;;;;;;-144.32;100.00;68061.97;10371853;28;20054;-77
2024/01/13 12:07:57;;;;;;;12.95;8.27;;;;;;;-144.32;100.00;68061.97;10370151;28;20069;-76
2024/01/13 12:14:01;;;;;;;16.13;8.57;;;;;;;-144.32;100.00;68061.97;10379408;28;20112;-78
2024/01/13 12:20:02;;;;;;;13.95;10.30;;;;;;;-144.32;100.00;68061.97;10368328;28;21069;-82
2024/01/13 12:26:03;;;;;;;15.13;9.60;;;;;;;-144.32;100.00;68061.97;10350549;28;20381;-78
2024/01/13 12:32:03;;;;;;;18.30;10.50;;;;;;;-144.32;100.00;68061.97;10351163;28;20057;-78
2024/01/13 12:38:06;;;;;;;15.13;9.27;;;;;;;-144.32;100.00;68061.97;10343314;28;20882;-79
2024/01/13 12:44:05;;;;;;;14.05;8.27;;;;;;;-144.32;100.00;68061.97;10371616;28;20057;-80
2024/01/13 12:50:10;;;;;;;13.73;7.65;;;;;;;-144.32;100.00;68061.97;10363032;28;20058;-78
2024/01/13 12:56:09;;;;;;;12.25;6.80;;;;;;;-144.32;100.00;68061.97;10343969;28;20200;-77
2024/01/13 13:02:08;;;;;;;12.98;7.05;;;;;;;-144.32;100.00;68061.97;10344848;28;20141;-77
2024/01/13 13:08:08;;;;;;;13.65;7.60;;;;;;;-144.32;100.00;68061.97;10367340;28;20111;-79
2024/01/13 13:14:07;;;;;;;11.25;7.13;;;;;;;-144.32;100.00;68061.97;10366379;28;20105;-78
2024/01/13 13:20:10;;;;;;;15.55;8.60;;;;;;;-144.32;100.00;68061.97;10345765;28;20183;-77
2024/01/13 13:26:09;;;;;;;13.98;7.43;;;;;;;-144.32;100.00;68061.97;10361903;28;20489;-78
2024/01/13 13:32:08;;;;;;;13.63;7.70;;;;;;;-144.32;100.00;68061.97;10350685;28;20597;-80
2024/01/13 13:38:07;;;;;;;14.98;7.75;;;;;;;-144.32;100.00;68061.97;10358804;28;20048;-75
2024/01/13 13:44:07;;;;;;;16.30;8.70;;;;;;;-144.32;100.00;68061.97;10362651;28;20556;-76
2024/01/13 13:50:07;;;;;;;13.00;7.45;;;;;;;-144.32;100.00;68061.97;10358781;28;20054;-80
2024/01/13 13:56:06;;;;;;;14.38;7.65;;;;;;;-144.32;100.00;68061.97;10355438;28;20108;-80
2024/01/13 14:02:05;;;;;;;14.02;7.55;;;;;;;-144.32;100.00;68061.97;10357926;28;20712;-78
2024/01/13 14:08:04;;;;;;;17.83;8.35;;;;;;;-144.32;100.00;68061.97;10334694;28;20521;-79
2024/01/13 14:14:03;;;;;;;16.02;8.50;;;;;;;-144.32;100.00;68061.97;10358451;28;20061;-77
2024/01/13 14:20:02;;;;;;;17.67;9.68;;;;;;;-144.32;100.00;68061.97;10349636;28;20049;-79
2024/01/13 14:26:03;;;;;;;18.45;9.43;;;;;;;-144.32;100.00;68061.97;10360521;28;20062;-76
2024/01/13 14:32:02;;;;;;;16.08;9.13;;;;;;;-144.32;100.00;68061.97;10361016;28;20556;-78
2024/01/13 14:38:01;;;;;;;16.88;9.88;;;;;;;-144.32;100.00;68061.97;10353688;28;20567;-78
2024/01/13 14:44:00;;;;;;;17.90;9.52;;;;;;;-144.32;100.00;68061.97;10362317;28;20058;-78
2024/01/13 14:50:00;;;;;;;18.40;10.73;;;;;;;-144.32;100.00;68061.97;10362409;28;20065;-79
2024/01/13 14:56:03;;;;;;;15.68;8.95;;;;;;;-144.32;100.00;68061.97;10335967;28;20104;-77
2024/01/13 15:02:02;;;;;;;16.98;9.35;;;;;;;-144.32;100.00;68061.97;10359255;28;20141;-79
2024/01/13 15:08:01;;;;;;;17.13;9.52;;;;;;;-144.32;100.00;68061.97;10351808;28;20089;-77
2024/01/13 15:14:00;;;;;;;21.50;11.25;;;;;;;-144.32;100.00;68061.97;10355336;28;20676;-77
2024/01/13 15:19:59;;;;;;;20.58;11.18;;;;;;;-144.32;100.00;68061.97;10355806;28;20405;-77
2024/01/13 15:25:59;;;;;;;20.42;10.65;;;;;;;-144.32;100.00;68061.97;10354019;28;20049;-76
2024/01/13 15:31:59;;;;;;;19.58;10.13;;;;;;;-144.32;100.00;68061.97;10335830;28;20161;-78
2024/01/13 15:37:58;;;;;;;18.42;11.07;;;;;;;-144.32;100.00;68061.97;10329994;28;20112;-75
2024/01/13 15:43:57;;;;;;;17.20;10.38;;;;;;;-144.32;100.00;68061.97;10364901;28;20049;-78
2024/01/13 15:49:56;;;;;;;17.27;10.35;;;;;;;-144.32;100.00;68061.97;10352982;28;20085;-77
2024/01/13 15:55:55;;;;;;;18.83;11.02;;;;;;;-144.32;100.00;68061.97;10361364;28;20070;-77
2024/01/13 16:01:55;;;;;;;20.63;11.55;;;;;;;-144.32;100.00;68061.97;10360375;28;20121;-75
2024/01/13 16:07:56;;;;;;;18.65;10.82;;;;;;;-144.32;100.00;68061.97;10348277;28;20066;-76
2024/01/13 16:14:01;;;;;;;19.67;10.73;;;;;;;-144.32;100.00;68061.97;10361883;28;20053;-77
2024/01/13 16:20:00;;;;;;;20.73;11.40;;;;;;;-144.32;100.00;68061.97;10362785;28;20061;-77
2024/01/13 16:25:59;;;;;;;21.42;11.25;;;;;;;-144.32;100.00;68061.97;10334220;28;20066;-80
2024/01/13 16:31:58;;;;;;;19.50;11.32;;;;;;;-144.32;100.00;68061.97;10363820;28;20290;-76
2024/01/13 16:37:57;;;;;;;22.27;11.95;;;;;;;-144.32;100.00;68061.97;10357613;28;20133;-76
2024/01/13 16:43:56;;;;;;;23.48;12.27;;;;;;;-144.32;100.00;68061.97;10369675;28;20061;-79
2024/01/13 16:49:55;;;;;;;20.98;12.05;;;;;;;-144.32;100.00;68061.97;10369077;28;20081;-77
2024/01/13 16:55:54;;;;;;;20.58;11.90;;;;;;;-144.32;100.00;68061.97;10358206;28;20049;-77
2024/01/13 17:01:53;;;;;;;24.45;13.02;;;;;;;-144.32;100.00;68061.97;10352164;28;20103;-77
2024/01/13 17:07:52;;;;;;;23.10;12.95;;;;;;;-144.32;100.00;68061.97;10351771;28;20112;-81
2024/01/13 17:13:51;;;;;;;22.92;12.73;;;;;;;-144.32;100.00;68061.97;10352368;28;20054;-78
2024/01/13 17:19:52;;;;;;;21.70;13.00;;;;;;;-144.32;100.00;68061.97;10351764;28;20046;-80
2024/01/13 17:25:51;;;;;;;21.88;12.80;;;;;;;-144.32;100.00;68061.97;10356045;28;20100;-78
2024/01/13 17:31:50;;;;;;;22.88;12.30;;;;;;;-144.32;100.00;68061.97;10354426;28;20123;-77
2024/01/13 17:37:50;;;;;;;22.23;13.82;;;;;;;-144.32;100.00;68061.97;10344212;28;20062;-79
2024/01/13 17:43:49;;;;;;;23.35;12.88;;;;;;;-144.32;100.00;68061.97;10349585;28;20046;-75
2024/01/13 17:49:48;;;;;;;25.42;14.35;;;;;;;-144.32;100.00;68061.97;10351767;28;20160;-78
2024/01/13 17:55:50;;;;;;;22.10;12.48;;;;;;;-144.32;100.00;68061.97;10348540;28;20131;-78
2024/01/13 18:01:49;;;;;;;21.55;12.52;;;;;;;-144.32;100.00;68061.97;10343764;28;20923;-79
2024/01/13 18:07:48;;;;;;;20.60;11.77;;;;;;;-144.32;100.00;68061.97;10347990;28;20552;-78
2024/01/13 18:13:47;;;;;;;20.10;11.63;;;;;;;-144.32;100.00;68061.97;10349008;28;20127;-77
2024/01/13 18:19:46;;;;;;;20.65;11.57;;;;;;;-144.32;100.00;68061.97;10347899;28;20057;-77
2024/01/13 18:25:45;;;;;;;20.70;12.02;;;;;;;-144.32;100.00;68061.97;10350778;28;20050;-78
2024/01/13 18:31:45;;;;;;;21.23;13.10;;;;;;;-144.32;100.00;68061.97;10347978;28;20058;-79
2024/01/13 18:37:48;;;;;;;22.50;12.32;;;;;;;-144.32;100.00;68061.97;10339369;28;20544;-78
2024/01/13 18:43:47;;;;;;;21.00;12.75;;;;;;;-144.32;100.00;68061.97;10345380;28;20060;-79
2024/01/13 18:49:46;;;;;;;20.88;11.57;;;;;;;-144.32;100.00;68061.97;10345700;28;20054;-80
2024/01/13 18:55:46;;;;;;;21.83;13.38;;;;;;;-144.32;100.00;68061.97;10348094;28;20111;-78
2024/01/13 19:01:45;;;;;;;25.38;13.60;;;;;;;-144.32;100.00;68061.97;10344961;28;20483;-76
2024/01/13 19:07:44;;;;;;;20.13;12.93;;;;;;;-144.32;100.00;68061.97;10333555;28;20158;-78
2024/01/13 19:13:43;;;;;;;27.50;16.55;;;;;;;-144.32;100.00;68061.97;10346115;28;20049;-77
2024/01/13 19:19:42;;;;;;;22.02;13.23;;;;;;;-144.32;100.00;68061.97;10337272;28;20064;-81
2024/01/13 19:25:43;;;;;;;21.67;12.95;;;;;;;-144.32;100.00;68061.97;10347697;28;20058;-78
2024/01/13 19:31:42;;;;;;;25.15;12.77;;;;;;;-144.32;100.00;68061.97;10342995;28;20073;-79
2024/01/13 19:37:42;;;;;;;22.83;13.02;;;;;;;-144.32;100.00;68061.97;10340435;28;20053;-79
2024/01/13 19:43:42;;;;;;;22.40;12.77;;;;;;;-144.32;100.00;68061.97;10349032;28;20050;-80
2024/01/13 19:49:41;;;;;;;23.00;12.02;;;;;;;-144.32;100.00;68061.97;10344247;28;20669;-78
2024/01/13 19:55:40;;;;;;;18.80;11.20;;;;;;;-144.32;100.00;68061.97;10343670;28;20064;-80
2024/01/13 20:01:39;;;;;;;20.55;11.70;;;;;;;-144.32;100.00;68061.97;10343996;28;20058;-77
2024/01/13 20:07:38;;;;;;;19.52;11.35;;;;;;;-144.32;100.00;68061.97;10346916;28;20089;-80
2024/01/13 20:13:38;;;;;;;21.50;12.15;;;;;;;-144.32;100.00;68061.97;10338908;28;20119;-78
2024/01/13 20:19:37;;;;;;;22.92;12.95;;;;;;;-144.32;100.00;68061.97;10352691;28;20046;-77
2024/01/13 20:25:36;;;;;;;22.02;11.82;;;;;;;-144.32;100.00;68061.97;10357544;28;20050;-81
2024/01/13 20:31:35;;;;;;;26.17;13.48;;;;;;;-144.32;100.00;68061.97;10354161;28;20056;-79
2024/01/13 20:37:34;;;;;;;26.58;13.95;;;;;;;-144.32;100.00;68061.97;10353280;28;20054;-78
2024/01/13 20:43:33;;;;;;;23.08;11.88;;;;;;;-144.32;100.00;68061.97;10324886;28;20492;-78
2024/01/13 20:49:32;;;;;;;24.58;12.18;;;;;;;-144.32;100.00;68061.97;10353774;28;20569;-78
2024/01/13 20:55:34;;;;;;;27.50;12.98;;;;;;;-144.32;100.00;68061.97;10341837;28;20049;-84
2024/01/13 21:01:34;;;;;;;24.00;12.68;;;;;;;-144.32;100.00;68061.97;10354999;28;20049;-79
2024/01/13 21:07:33;;;;;;;25.80;12.32;;;;;;;-144.32;100.00;68061.97;10333075;28;20054;-78
2024/01/13 21:13:32;;;;;;;25.20;12.02;;;;;;;-144.32;100.00;68061.97;10354161;28;20089;-78
2024/01/13 21:19:31;;;;;;;35.75;17.02;;;;;;;-144.32;100.00;68061.97;10344513;28;20529;-79
